createdAt,value
2019-03-30T00:00:58.657Z,4.29
2019-03-30T00:03:29.546Z,4.46
2019-03-30T00:06:00.457Z,4.42
2019-03-30T00:08:31.492Z,4.36
2019-03-30T00:11:02.339Z,4.50
2019-03-30T00:13:33.498Z,4.40
2019-03-30T00:16:04.592Z,4.41
2019-03-30T00:18:35.460Z,4.49
2019-03-30T00:21:06.612Z,4.46
2019-03-30T00:23:37.828Z,4.68
2019-03-30T00:26:08.866Z,4.78
2019-03-30T00:28:39.932Z,4.88
2019-03-30T00:31:10.810Z,4.78
2019-03-30T00:33:42.128Z,4.85
2019-03-30T00:36:13.095Z,4.81
2019-03-30T00:38:43.917Z,4.85
2019-03-30T00:41:15.058Z,4.68
2019-03-30T00:43:46.160Z,4.69
2019-03-30T00:46:17.267Z,4.71
2019-03-30T00:48:48.361Z,4.82
2019-03-30T00:51:19.410Z,4.67
2019-03-30T00:53:50.478Z,4.55
2019-03-30T00:56:21.442Z,4.56
2019-03-30T00:58:52.418Z,4.63
2019-03-30T01:01:23.703Z,4.81
2019-03-30T01:03:55.625Z,4.84
2019-03-30T01:06:26.496Z,4.86
2019-03-30T01:08:57.376Z,4.72
2019-03-30T01:11:28.668Z,4.97
2019-03-30T01:13:59.527Z,4.89
2019-03-30T01:16:30.372Z,4.95
2019-03-30T01:19:01.554Z,5.13
2019-03-30T01:21:32.446Z,5.43
2019-03-30T01:24:03.275Z,5.38
2019-03-30T01:26:35.670Z,5.44
2019-03-30T01:29:06.830Z,5.31
2019-03-30T01:31:38.158Z,5.12
2019-03-30T01:34:08.974Z,5.27
2019-03-30T01:36:39.991Z,5.37
2019-03-30T01:39:11.081Z,4.96
2019-03-30T01:41:42.571Z,4.95
2019-03-30T01:44:16.779Z,5.11
2019-03-30T01:46:48.143Z,5.27
2019-03-30T01:49:19.078Z,5.29
2019-03-30T01:51:49.972Z,5.46
2019-03-30T01:54:21.327Z,5.37
2019-03-30T01:56:52.558Z,5.30
2019-03-30T01:59:23.378Z,5.26
2019-03-30T02:01:54.609Z,5.03
2019-03-30T02:04:25.426Z,4.97
2019-03-30T02:06:56.437Z,5.17
2019-03-30T02:09:27.299Z,5.41
2019-03-30T02:11:58.340Z,5.59
2019-03-30T02:14:29.507Z,5.34
2019-03-30T02:17:00.583Z,5.26
2019-03-30T02:19:31.616Z,5.20
2019-03-30T02:22:02.924Z,5.46
2019-03-30T02:24:34.077Z,5.75
2019-03-30T02:27:05.250Z,5.62
2019-03-30T02:29:36.187Z,5.47
2019-03-30T02:32:08.317Z,5.55
2019-03-30T02:34:39.164Z,5.64
2019-03-30T02:37:10.100Z,5.74
2019-03-30T02:39:40.912Z,5.72
2019-03-30T02:42:12.036Z,5.69
2019-03-30T02:44:43.134Z,5.56
2019-03-30T02:47:14.271Z,5.48
2019-03-30T02:49:45.256Z,5.32
2019-03-30T02:52:16.570Z,5.43
2019-03-30T02:54:47.412Z,5.03
2019-03-30T02:57:18.526Z,4.63
2019-03-30T02:59:49.591Z,4.85
2019-03-30T03:02:20.630Z,5.02
2019-03-30T03:04:51.490Z,5.25
2019-03-30T03:07:23.529Z,5.24
2019-03-30T03:09:54.429Z,5.07
2019-03-30T03:12:25.542Z,4.95
2019-03-30T03:14:56.348Z,4.92
2019-03-30T03:17:27.375Z,4.82
2019-03-30T03:19:58.291Z,4.76
2019-03-30T03:22:29.277Z,4.86
2019-03-30T03:25:00.267Z,4.84
2019-03-30T03:27:31.725Z,4.47
2019-03-30T03:30:02.893Z,4.50
2019-03-30T03:32:33.712Z,4.45
2019-03-30T03:35:05.055Z,4.50
2019-03-30T03:37:45.379Z,4.55
2019-03-30T03:40:10.542Z,4.35
2019-03-30T03:42:41.466Z,4.07
2019-03-30T03:45:12.460Z,4.16
2019-03-30T03:47:43.597Z,4.29
2019-03-30T03:50:48.504Z,4.24
2019-03-30T03:53:19.382Z,4.26
2019-03-30T03:55:50.906Z,4.06
2019-03-30T03:58:24.921Z,4.26
2019-03-30T04:00:58.360Z,4.33
2019-03-30T04:03:32.302Z,4.47
2019-03-30T04:06:06.109Z,4.46
2019-03-30T04:08:37.045Z,4.51
2019-03-30T04:11:10.594Z,4.49
2019-03-30T04:13:43.750Z,4.52
2019-03-30T04:16:14.896Z,4.54
2019-03-30T04:18:48.307Z,4.51
2019-03-30T04:21:18.872Z,4.48
2019-03-30T04:23:54.046Z,4.52
2019-03-30T04:26:22.212Z,4.59
2019-03-30T04:28:53.305Z,4.63
2019-03-30T04:31:24.433Z,4.77
2019-03-30T04:33:55.390Z,4.73
2019-03-30T04:36:26.627Z,4.77
2019-03-30T04:38:57.804Z,4.80
2019-03-30T04:41:28.660Z,4.90
2019-03-30T04:43:59.782Z,4.87
2019-03-30T04:46:30.759Z,3.90
2019-03-30T04:49:02.993Z,5.02
2019-03-30T04:51:34.107Z,5.03
2019-03-30T04:54:04.933Z,5.03
2019-03-30T04:56:36.393Z,5.19
2019-03-30T04:59:07.607Z,5.29
2019-03-30T05:01:38.660Z,5.42
2019-03-30T05:04:09.737Z,5.52
2019-03-30T05:06:41.258Z,5.56
2019-03-30T05:09:12.098Z,5.64
2019-03-30T05:11:44.326Z,5.75
2019-03-30T05:14:15.450Z,5.91
2019-03-30T05:16:46.345Z,5.99
2019-03-30T05:19:17.337Z,5.96
2019-03-30T05:21:48.427Z,6.16
2019-03-30T05:24:19.352Z,6.26
2019-03-30T05:26:50.525Z,6.35
2019-03-30T05:29:21.526Z,6.27
2019-03-30T05:31:52.726Z,6.34
2019-03-30T05:34:23.703Z,6.55
2019-03-30T05:36:54.535Z,6.57
2019-03-30T05:39:25.455Z,6.79
2019-03-30T05:41:56.747Z,6.92
2019-03-30T05:44:27.803Z,6.90
2019-03-30T05:46:58.665Z,6.88
2019-03-30T05:49:29.795Z,6.94
2019-03-30T05:52:00.998Z,7.21
2019-03-30T05:54:32.155Z,7.07
2019-03-30T05:57:03.931Z,7.03
2019-03-30T05:59:35.003Z,7.05
2019-03-30T06:02:06.266Z,6.98
2019-03-30T06:04:37.323Z,7.07
2019-03-30T06:07:08.163Z,7.11
2019-03-30T06:09:39.167Z,7.23
2019-03-30T06:12:10.272Z,7.09
2019-03-30T06:14:41.544Z,7.12
2019-03-30T06:17:12.536Z,7.09
2019-03-30T06:19:43.611Z,6.99
2019-03-30T06:22:14.603Z,7.23
2019-03-30T06:24:45.493Z,7.23
2019-03-30T06:27:18.599Z,7.07
2019-03-30T06:30:18.445Z,7.17
2019-03-30T06:32:49.274Z,7.29
2019-03-30T06:35:20.208Z,7.40
2019-03-30T06:37:51.471Z,7.36
2019-03-30T06:40:22.536Z,7.34
2019-03-30T06:42:54.820Z,7.54
2019-03-30T06:45:26.022Z,7.92
2019-03-30T06:47:57.159Z,7.85
2019-03-30T06:50:28.047Z,7.91
2019-03-30T06:52:59.252Z,8.11
2019-03-30T06:55:30.072Z,8.65
2019-03-30T06:58:01.074Z,8.84
2019-03-30T07:00:35.499Z,8.74
2019-03-30T07:03:07.578Z,8.72
2019-03-30T07:05:42.098Z,8.89
2019-03-30T07:08:19.634Z,9.14
2019-03-30T07:10:50.559Z,9.37
2019-03-30T07:13:22.319Z,9.37
2019-03-30T07:15:54.892Z,9.81
2019-03-30T07:18:25.756Z,9.98
2019-03-30T07:20:56.793Z,9.98
2019-03-30T07:23:28.002Z,10.05
2019-03-30T07:25:58.849Z,10.34
2019-03-30T07:28:30.209Z,10.32
2019-03-30T07:31:01.250Z,10.35
2019-03-30T07:33:32.299Z,10.38
2019-03-30T07:36:03.459Z,10.38
2019-03-30T07:38:34.885Z,10.71
2019-03-30T07:41:05.763Z,10.88
2019-03-30T07:43:37.136Z,11.08
2019-03-30T07:46:08.165Z,11.16
2019-03-30T07:48:40.168Z,11.49
2019-03-30T07:51:11.131Z,11.22
2019-03-30T07:53:44.833Z,11.51
2019-03-30T07:56:14.839Z,11.49
2019-03-30T07:58:45.815Z,11.59
2019-03-30T08:01:17.019Z,11.37
2019-03-30T08:03:48.067Z,11.59
2019-03-30T08:06:18.916Z,11.66
2019-03-30T08:08:49.873Z,11.84
2019-03-30T08:11:20.969Z,11.90
2019-03-30T08:13:51.917Z,12.04
2019-03-30T08:16:22.753Z,11.96
2019-03-30T08:18:54.420Z,12.26
2019-03-30T08:21:25.639Z,12.44
2019-03-30T08:23:58.870Z,12.51
2019-03-30T08:26:30.039Z,12.67
2019-03-30T08:29:01.272Z,12.55
2019-03-30T08:31:32.091Z,12.92
2019-03-30T08:34:03.278Z,13.04
2019-03-30T08:36:34.619Z,13.03
2019-03-30T08:39:07.231Z,13.07
2019-03-30T08:41:38.187Z,13.35
2019-03-30T08:44:09.270Z,13.31
2019-03-30T08:46:40.084Z,13.55
2019-03-30T08:49:10.970Z,13.33
2019-03-30T08:51:41.884Z,13.23
2019-03-30T08:54:12.808Z,13.15
2019-03-30T08:56:43.643Z,13.46
2019-03-30T08:59:15.003Z,13.67
2019-03-30T09:01:46.083Z,13.83
2019-03-30T09:04:17.243Z,13.71
2019-03-30T09:06:48.081Z,13.78
2019-03-30T09:09:19.007Z,13.72
2019-03-30T09:11:50.145Z,13.93
2019-03-30T09:14:21.092Z,13.86
2019-03-30T09:16:52.883Z,13.92
2019-03-30T09:19:23.889Z,13.90
2019-03-30T09:21:54.772Z,13.91
2019-03-30T09:24:25.669Z,13.96
2019-03-30T09:26:56.778Z,14.14
2019-03-30T09:29:27.958Z,13.85
2019-03-30T09:32:13.263Z,14.18
2019-03-30T09:34:31.925Z,14.17
2019-03-30T09:37:02.847Z,14.05
2019-03-30T09:39:34.092Z,14.58
2019-03-30T09:42:05.088Z,14.20
2019-03-30T09:44:35.958Z,14.59
2019-03-30T09:47:07.059Z,14.91
2019-03-30T09:49:38.108Z,15.14
2019-03-30T09:52:08.931Z,15.22
2019-03-30T09:54:40.197Z,15.31
2019-03-30T09:57:11.499Z,15.38
2019-03-30T09:59:42.642Z,15.64
2019-03-30T10:02:14.708Z,16.06
2019-03-30T10:04:46.087Z,16.13
2019-03-30T10:07:16.910Z,15.94
2019-03-30T10:09:48.120Z,15.88
2019-03-30T10:12:18.974Z,16.42
2019-03-30T10:14:50.112Z,16.91
2019-03-30T10:17:21.043Z,16.97
2019-03-30T10:20:03.538Z,16.86
2019-03-30T10:22:24.519Z,16.77
2019-03-30T10:24:58.460Z,16.89
2019-03-30T10:27:28.488Z,17.22
2019-03-30T10:29:59.459Z,17.30
2019-03-30T10:32:30.659Z,17.46
2019-03-30T10:35:01.841Z,17.27
2019-03-30T10:37:32.823Z,16.80
2019-03-30T10:40:04.178Z,16.91
2019-03-30T10:42:35.101Z,17.21
2019-03-30T10:45:06.872Z,16.72
2019-03-30T10:47:37.783Z,17.16
2019-03-30T10:50:09.244Z,17.69
2019-03-30T10:52:40.501Z,17.75
2019-03-30T10:55:11.372Z,17.99
2019-03-30T11:00:12.340Z,18.56
2019-03-30T11:02:43.531Z,18.33
2019-03-30T11:05:14.724Z,18.78
2019-03-30T11:07:45.976Z,18.79
2019-03-30T11:10:17.266Z,19.02
2019-03-30T11:12:48.224Z,19.52
2019-03-30T11:15:19.651Z,19.54
2019-03-30T11:17:50.587Z,20.12
2019-03-30T11:20:21.890Z,19.83
2019-03-30T11:22:52.988Z,19.73
2019-03-30T11:25:23.898Z,19.65
2019-03-30T11:27:54.952Z,19.93
2019-03-30T11:30:26.065Z,19.90
2019-03-30T11:32:56.940Z,19.98
2019-03-30T11:35:27.954Z,20.18
2019-03-30T11:37:59.062Z,20.62
2019-03-30T11:40:29.951Z,20.18
2019-03-30T11:43:00.889Z,20.36
2019-03-30T11:45:32.035Z,20.33
2019-03-30T11:48:03.162Z,19.01
2019-03-30T11:50:34.124Z,18.13
2019-03-30T11:53:05.055Z,18.97
2019-03-30T11:55:36.422Z,18.77
2019-03-30T11:58:09.441Z,19.11
2019-03-30T12:00:40.350Z,18.66
2019-03-30T12:03:11.289Z,18.79
2019-03-30T12:05:42.498Z,19.04
2019-03-30T12:08:13.377Z,19.08
2019-03-30T12:10:44.256Z,18.97
2019-03-30T12:13:15.546Z,19.55
2019-03-30T12:15:46.566Z,19.86
2019-03-30T12:18:18.456Z,19.81
2019-03-30T12:20:49.321Z,20.08
2019-03-30T12:23:20.308Z,20.46
2019-03-30T12:25:51.408Z,20.50
2019-03-30T12:28:22.298Z,20.30
2019-03-30T12:30:53.184Z,21.02
2019-03-30T12:33:24.538Z,20.62
2019-03-30T12:35:55.586Z,21.13
2019-03-30T12:38:26.460Z,19.31
2019-03-30T12:40:57.665Z,20.89
2019-03-30T12:43:28.739Z,21.46
2019-03-30T12:45:59.573Z,21.72
2019-03-30T12:48:30.692Z,21.89
2019-03-30T12:51:01.727Z,22.00
2019-03-30T12:53:32.781Z,22.13
2019-03-30T12:56:03.915Z,22.34
2019-03-30T12:58:35.156Z,22.63
2019-03-30T13:01:05.973Z,22.86
2019-03-30T13:03:37.071Z,23.31
2019-03-30T13:06:08.212Z,23.32
2019-03-30T13:08:39.069Z,23.53
2019-03-30T13:11:09.931Z,23.18
2019-03-30T13:13:41.115Z,22.83
2019-03-30T13:16:12.180Z,23.09
2019-03-30T13:18:43.129Z,22.92
2019-03-30T13:21:14.374Z,23.56
2019-03-30T13:23:45.548Z,22.66
2019-03-30T13:26:16.614Z,22.47
2019-03-30T13:28:47.594Z,22.68
2019-03-30T13:31:18.504Z,23.10
2019-03-30T13:33:49.682Z,22.04
2019-03-30T13:36:37.194Z,22.52
2019-03-30T13:39:08.696Z,22.48
2019-03-30T13:41:39.908Z,22.28
2019-03-30T13:44:10.818Z,22.18
2019-03-30T13:46:41.668Z,21.93
2019-03-30T13:49:12.625Z,21.97
2019-03-30T13:51:43.629Z,22.06
2019-03-30T13:54:14.509Z,22.87
2019-03-30T13:56:45.560Z,22.86
2019-03-30T13:59:16.405Z,22.96
2019-03-30T14:01:47.546Z,22.35
2019-03-30T14:04:18.670Z,22.50
2019-03-30T14:06:49.509Z,22.59
2019-03-30T14:09:22.016Z,22.25
2019-03-30T14:11:53.429Z,22.75
2019-03-30T14:14:24.286Z,22.71
2019-03-30T14:16:55.149Z,22.29
2019-03-30T14:19:26.118Z,22.30
2019-03-30T14:21:56.965Z,22.27
2019-03-30T14:24:27.875Z,22.35
2019-03-30T14:26:58.853Z,22.68
2019-03-30T14:29:30.131Z,22.93
2019-03-30T14:32:01.294Z,22.90
2019-03-30T14:34:32.355Z,21.61
2019-03-30T14:37:03.370Z,23.09
2019-03-30T14:39:34.468Z,22.51
2019-03-30T14:42:05.692Z,22.70
2019-03-30T14:44:37.511Z,22.25
2019-03-30T14:47:08.480Z,22.88
2019-03-30T14:49:39.294Z,23.01
2019-03-30T14:52:10.156Z,22.39
2019-03-30T14:54:52.229Z,22.56
2019-03-30T14:57:14.223Z,22.48
2019-03-30T14:59:45.373Z,22.26
2019-03-30T15:02:16.228Z,22.45
2019-03-30T15:04:47.064Z,22.38
2019-03-30T15:07:18.232Z,22.65
2019-03-30T15:09:49.159Z,22.44
2019-03-30T15:12:20.178Z,22.44
2019-03-30T15:14:51.331Z,22.70
2019-03-30T15:17:22.203Z,23.16
2019-03-30T15:19:53.096Z,22.74
2019-03-30T15:22:23.983Z,23.07
2019-03-30T15:24:55.104Z,22.88
2019-03-30T15:27:26.103Z,22.68
2019-03-30T15:29:57.199Z,22.42
2019-03-30T15:32:28.177Z,22.70
2019-03-30T15:34:59.335Z,22.38
2019-03-30T15:37:30.935Z,22.51
2019-03-30T15:40:01.753Z,22.77
2019-03-30T15:42:32.908Z,21.88
2019-03-30T15:45:03.859Z,21.56
2019-03-30T15:47:34.700Z,21.36
2019-03-30T15:50:06.500Z,21.48
2019-03-30T15:52:37.795Z,21.02
2019-03-30T15:55:09.040Z,21.29
2019-03-30T15:57:40.090Z,21.07
2019-03-30T16:00:15.368Z,20.86
2019-03-30T16:02:46.444Z,21.16
2019-03-30T16:05:17.670Z,20.97
2019-03-30T16:07:48.641Z,20.64
2019-03-30T16:10:19.838Z,20.19
2019-03-30T16:12:50.797Z,20.03
2019-03-30T16:15:21.617Z,19.74
2019-03-30T16:17:52.534Z,19.49
2019-03-30T16:20:23.533Z,19.53
2019-03-30T16:22:54.400Z,19.25
2019-03-30T16:25:25.271Z,19.06
2019-03-30T16:27:57.461Z,18.71
2019-03-30T16:30:28.545Z,18.67
2019-03-30T16:32:59.495Z,18.40
2019-03-30T16:35:30.576Z,18.03
2019-03-30T16:38:01.663Z,17.69
2019-03-30T16:40:32.860Z,17.01
2019-03-30T16:43:03.717Z,16.97
2019-03-30T16:45:34.561Z,16.16
2019-03-30T16:48:05.593Z,16.09
2019-03-30T16:50:36.538Z,15.87
2019-03-30T16:53:07.488Z,15.64
2019-03-30T16:55:38.812Z,15.43
2019-03-30T16:58:10.014Z,14.88
2019-03-30T17:00:55.777Z,14.70
2019-03-30T17:03:13.726Z,14.54
2019-03-30T17:05:44.781Z,14.32
2019-03-30T17:08:15.866Z,14.02
2019-03-30T17:10:47.219Z,13.91
2019-03-30T17:13:18.269Z,13.83
2019-03-30T17:15:49.097Z,13.56
2019-03-30T17:18:21.090Z,13.43
2019-03-30T17:20:52.257Z,13.36
2019-03-30T17:23:24.281Z,13.12
2019-03-30T17:25:55.104Z,13.11
2019-03-30T17:28:26.301Z,12.98
2019-03-30T17:30:57.236Z,12.80
2019-03-30T17:33:28.161Z,12.77
2019-03-30T17:35:59.386Z,12.83
2019-03-30T17:38:30.497Z,12.65
2019-03-30T17:41:02.700Z,12.45
2019-03-30T17:43:33.569Z,12.44
2019-03-30T17:46:04.397Z,12.27
2019-03-30T17:48:35.459Z,12.29
2019-03-30T17:51:06.353Z,12.26
2019-03-30T17:53:39.401Z,10.34
2019-03-30T17:56:10.288Z,12.06
2019-03-30T17:58:41.490Z,12.03
2019-03-30T18:01:15.593Z,12.15
2019-03-30T18:03:45.415Z,11.97
2019-03-30T18:06:16.692Z,12.06
2019-03-30T18:08:47.557Z,11.92
2019-03-30T18:11:18.721Z,12.02
2019-03-30T18:13:49.639Z,11.81
2019-03-30T18:16:22.420Z,11.91
2019-03-30T18:18:53.273Z,11.70
2019-03-30T18:21:24.252Z,11.68
2019-03-30T18:23:55.358Z,11.60
2019-03-30T18:26:27.588Z,11.62
2019-03-30T18:28:58.595Z,11.52
2019-03-30T18:31:29.930Z,11.34
2019-03-30T18:34:01.201Z,11.39
2019-03-30T18:36:33.195Z,11.33
2019-03-30T18:39:09.962Z,11.21
2019-03-30T18:41:38.576Z,11.23
2019-03-30T18:44:09.465Z,11.11
2019-03-30T18:46:40.358Z,11.09
2019-03-30T18:49:11.335Z,11.04
2019-03-30T18:51:44.703Z,11.09
2019-03-30T18:54:17.071Z,11.04
2019-03-30T18:56:47.944Z,10.99
2019-03-30T18:59:18.867Z,10.93
2019-03-30T19:01:50.023Z,10.55
2019-03-30T19:04:20.983Z,10.41
2019-03-30T19:06:51.918Z,10.55
2019-03-30T19:09:23.288Z,10.21
2019-03-30T19:11:54.102Z,10.15
2019-03-30T19:14:24.954Z,10.23
2019-03-30T19:16:55.850Z,9.86
2019-03-30T19:19:29.271Z,10.07
2019-03-30T19:22:01.741Z,9.59
2019-03-30T19:24:32.588Z,9.16
2019-03-30T19:27:03.531Z,8.97
2019-03-30T19:29:34.748Z,8.58
2019-03-30T19:32:05.573Z,8.61
2019-03-30T19:34:36.455Z,8.48
2019-03-30T19:37:07.759Z,8.16
2019-03-30T19:39:38.740Z,8.08
2019-03-30T19:42:09.547Z,7.92
2019-03-30T19:44:40.590Z,8.00
2019-03-30T19:47:11.526Z,7.99
2019-03-30T19:49:42.423Z,7.78
2019-03-30T19:52:13.295Z,7.55
2019-03-30T19:54:44.228Z,7.57
2019-03-30T19:57:15.548Z,7.62
2019-03-30T19:59:46.647Z,7.73
2019-03-30T20:02:17.523Z,7.70
2019-03-30T20:04:48.848Z,7.56
2019-03-30T20:07:20.024Z,7.52
2019-03-30T20:09:50.956Z,7.45
2019-03-30T20:12:22.023Z,7.46
2019-03-30T20:14:53.019Z,7.18
2019-03-30T20:17:23.824Z,6.87
2019-03-30T20:19:54.757Z,6.88
2019-03-30T20:22:25.781Z,6.77
2019-03-30T20:24:56.957Z,6.98
2019-03-30T20:27:28.041Z,6.88
2019-03-30T20:29:59.014Z,7.01
2019-03-30T20:32:30.136Z,7.09
2019-03-30T20:35:01.378Z,6.69
2019-03-30T20:37:32.261Z,6.99
2019-03-30T20:40:03.214Z,6.66
2019-03-30T20:42:34.321Z,6.62
2019-03-30T20:45:06.600Z,6.64
2019-03-30T20:47:37.455Z,6.61
2019-03-30T20:50:08.999Z,6.46
2019-03-30T20:52:39.814Z,6.51
2019-03-30T20:55:11.077Z,6.45
2019-03-30T20:57:41.904Z,6.33
2019-03-30T21:00:13.962Z,6.32
2019-03-30T21:02:45.241Z,6.35
2019-03-30T21:05:16.171Z,6.33
2019-03-30T21:07:47.053Z,6.24
2019-03-30T21:10:18.140Z,6.24
2019-03-30T21:12:49.005Z,6.20
2019-03-30T21:15:19.820Z,6.22
2019-03-30T21:17:51.083Z,6.12
2019-03-30T21:20:22.110Z,6.10
2019-03-30T21:22:53.041Z,6.08
2019-03-30T21:25:24.311Z,6.12
2019-03-30T21:27:55.606Z,6.03
2019-03-30T21:30:26.553Z,5.99
2019-03-30T21:32:57.812Z,5.97
2019-03-30T21:35:28.946Z,6.02
2019-03-30T21:37:59.792Z,6.08
2019-03-30T21:40:30.774Z,6.10
2019-03-30T21:43:01.930Z,6.01
2019-03-30T21:45:32.787Z,6.02
2019-03-30T21:48:03.765Z,5.83
2019-03-30T21:50:35.826Z,5.97
2019-03-30T21:53:06.687Z,5.86
2019-03-30T21:55:37.583Z,5.77
2019-03-30T21:58:08.839Z,5.79
2019-03-30T22:00:41.095Z,5.77
2019-03-30T22:03:12.259Z,5.67
2019-03-30T22:05:43.229Z,5.75
2019-03-30T22:08:17.026Z,5.58
2019-03-30T22:10:46.955Z,5.57
2019-03-30T22:13:21.273Z,5.38
2019-03-30T22:15:50.512Z,5.39
2019-03-30T22:18:21.687Z,5.41
2019-03-30T22:20:52.776Z,5.30
2019-03-30T22:23:23.633Z,5.28
2019-03-30T22:25:54.824Z,5.28
2019-03-30T22:28:25.892Z,5.16
2019-03-30T22:30:56.828Z,5.12
2019-03-30T22:33:30.793Z,5.13
2019-03-30T22:36:01.269Z,5.14
2019-03-30T22:38:32.453Z,5.27
2019-03-30T22:41:03.366Z,5.16
2019-03-30T22:43:34.212Z,5.10
2019-03-30T22:46:07.554Z,5.07
2019-03-30T22:48:38.119Z,5.12
2019-03-30T22:51:08.985Z,5.01
2019-03-30T22:53:40.050Z,5.00
2019-03-30T22:56:11.381Z,4.99
2019-03-30T22:58:43.129Z,4.85
2019-03-30T23:01:16.630Z,4.90
2019-03-30T23:03:49.180Z,4.97
2019-03-30T23:06:20.438Z,4.89
2019-03-30T23:08:51.626Z,4.95
2019-03-30T23:11:22.497Z,5.06
2019-03-30T23:13:53.490Z,4.89
2019-03-30T23:16:24.393Z,4.89
2019-03-30T23:18:55.252Z,4.82
2019-03-30T23:21:26.328Z,5.03
2019-03-30T23:23:58.405Z,4.90
2019-03-30T23:26:29.458Z,4.69
2019-03-30T23:29:00.339Z,4.79
2019-03-30T23:31:31.593Z,4.75
2019-03-30T23:34:02.638Z,4.70
2019-03-30T23:36:33.549Z,4.61
2019-03-30T23:39:06.208Z,4.51
2019-03-30T23:41:37.099Z,4.51
2019-03-30T23:44:07.981Z,4.51
2019-03-30T23:46:39.167Z,4.45
2019-03-30T23:49:11.311Z,4.47
2019-03-30T23:51:42.135Z,4.34
2019-03-30T23:54:16.229Z,4.37
2019-03-30T23:56:48.396Z,4.49
2019-03-30T23:59:19.273Z,4.57
